Time;durP1;ratioP1;P1;durP2;ratioP2;P2;SDS_P1;SDS_P2;PMS_P1;PMS_P2;Temp;Humidity;BMP_temperature;BMP_pressure;BME280_temperature;BME280_humidity;BME280_pressure;Samples;Min_cycle;Max_cycle;Signal;HPM_P1;HPM_P2
2022/06/05 00:01:19;;;;;;;13.13;10.47;;;13.50;99.90;;;;;;4967016;28;20216;-83
2022/06/05 00:03:54;;;;;;;14.63;11.07;;;13.50;99.90;;;;;;4968684;28;20203;-80
2022/06/05 00:06:28;;;;;;;14.93;11.37;;;13.50;99.90;;;;;;4954105;28;20244;-81
2022/06/05 00:09:11;;;;;;;20.77;12.63;;;13.40;99.90;;;;;;4947205;28;20321;-83
2022/06/05 00:11:47;;;;;;;14.53;12.23;;;13.40;99.90;;;;;;4931136;29;20186;-85
2022/06/05 00:14:14;;;;;;;16.03;11.67;;;13.40;99.90;;;;;;4931909;28;20296;-84
2022/06/05 00:16:41;;;;;;;17.47;12.00;;;13.40;99.90;;;;;;4931361;29;20301;-82
2022/06/05 00:19:08;;;;;;;15.60;12.10;;;13.40;99.90;;;;;;4937981;28;20215;-82
2022/06/05 00:21:37;;;;;;;16.37;12.60;;;13.30;99.90;;;;;;4951033;29;20581;-80
2022/06/05 00:24:04;;;;;;;16.13;12.43;;;13.30;99.90;;;;;;4952100;29;20213;-84
2022/06/05 00:26:40;;;;;;;14.80;12.87;;;13.30;99.90;;;;;;4952293;29;20328;-83
2022/06/05 00:29:27;;;;;;;19.03;13.70;;;13.30;99.90;;;;;;4952333;28;20205;-82
2022/06/05 00:32:05;;;;;;;15.40;12.27;;;13.30;99.90;;;;;;4948025;29;20205;-83
2022/06/05 00:34:32;;;;;;;21.10;14.20;;;13.30;99.90;;;;;;4950947;29;20217;-82
2022/06/05 00:37:12;;;;;;;19.30;13.47;;;13.20;99.90;;;;;;4951413;28;20237;-82
2022/06/05 00:39:47;;;;;;;16.87;13.70;;;13.20;99.90;;;;;;4932378;29;20224;-83
2022/06/05 00:42:17;;;;;;;19.17;14.07;;;13.10;99.90;;;;;;4947265;29;20207;-83
2022/06/05 00:44:47;;;;;;;19.97;14.03;;;13.10;99.90;;;;;;4951867;29;20212;-81
2022/06/05 00:47:17;;;;;;;18.30;13.57;;;13.10;99.90;;;;;;4950897;28;20319;-83
2022/06/05 00:49:49;;;;;;;17.07;13.80;;;13.10;99.90;;;;;;4951230;29;20289;-80
2022/06/05 00:52:19;;;;;;;19.73;14.30;;;13.20;99.90;;;;;;4949353;28;20237;-78
2022/06/05 00:54:46;;;;;;;19.17;14.27;;;13.20;99.90;;;;;;4950080;29;20253;-80
2022/06/05 00:57:14;;;;;;;21.43;14.97;;;13.10;99.90;;;;;;4947545;29;21002;-83
2022/06/05 00:59:44;;;;;;;17.30;13.53;;;13.10;99.90;;;;;;4947868;29;20597;-83
2022/06/05 01:02:12;;;;;;;18.83;13.70;;;13.10;99.90;;;;;;4951378;28;20209;-83
2022/06/05 01:04:43;;;;;;;14.90;12.83;;;13.10;99.90;;;;;;4950586;29;20217;-81
2022/06/05 01:07:10;;;;;;;19.40;14.40;;;13.10;99.90;;;;;;4947358;28;20222;-85
2022/06/05 01:09:41;;;;;;;21.90;14.30;;;13.10;99.90;;;;;;4931672;29;20506;-81
2022/06/05 01:12:15;;;;;;;19.43;14.27;;;13.10;99.90;;;;;;4931049;28;20496;-84
2022/06/05 01:14:52;;;;;;;16.10;13.63;;;13.10;99.90;;;;;;4968512;28;20208;-84
2022/06/05 01:17:28;;;;;;;17.03;14.40;;;13.10;99.90;;;;;;4970754;28;20215;-83
2022/06/05 01:20:03;;;;;;;19.37;14.07;;;13.10;99.90;;;;;;4970632;28;20197;-82
2022/06/05 01:22:55;;;;;;;20.33;14.30;;;13.10;99.90;;;;;;4971667;28;20636;-82
2022/06/05 01:25:45;;;;;;;19.77;14.93;;;13.10;99.90;;;;;;4955358;28;20602;-83
2022/06/05 01:28:17;;;;;;;21.30;14.27;;;13.00;99.90;;;;;;4949994;29;20189;-80
2022/06/05 01:30:57;;;;;;;18.67;14.07;;;13.00;99.90;;;;;;4950979;28;20217;-81
2022/06/05 01:33:27;;;;;;;20.40;14.23;;;13.00;99.90;;;;;;4949807;28;20213;-82
2022/06/05 01:36:02;;;;;;;18.17;13.43;;;13.10;99.90;;;;;;4932193;29;20209;-79
2022/06/05 01:38:38;;;;;;;19.90;13.70;;;13.10;99.90;;;;;;4931509;29;20239;-83
2022/06/05 01:41:10;;;;;;;19.43;15.23;;;13.10;99.90;;;;;;4931516;29;20228;-81
2022/06/05 01:43:42;;;;;;;19.50;14.10;;;13.00;99.90;;;;;;4947257;29;21106;-82
2022/06/05 01:46:14;;;;;;;18.90;14.67;;;13.00;99.90;;;;;;4949015;29;20521;-80
2022/06/05 01:48:45;;;;;;;19.97;14.10;;;13.00;99.90;;;;;;4949038;28;20235;-79
2022/06/05 01:51:19;;;;;;;19.83;14.50;;;13.00;99.90;;;;;;4950924;29;20276;-82
2022/06/05 01:53:49;;;;;;;17.07;14.03;;;13.10;99.90;;;;;;4951122;28;20251;-86
2022/06/05 01:56:22;;;;;;;16.13;14.17;;;13.00;99.90;;;;;;4949808;29;20268;-81
2022/06/05 01:58:53;;;;;;;19.83;14.20;;;13.10;99.90;;;;;;4939057;28;20218;-82
2022/06/05 02:01:25;;;;;;;17.77;13.63;;;13.00;99.90;;;;;;4928178;29;20190;-80
2022/06/05 02:04:02;;;;;;;17.03;14.00;;;13.00;99.90;;;;;;4928036;28;20213;-79
2022/06/05 02:06:33;;;;;;;19.40;14.17;;;13.00;99.90;;;;;;4928460;29;20309;-80
2022/06/05 02:09:05;;;;;;;20.47;13.27;;;13.00;99.90;;;;;;4930869;28;20292;-80
2022/06/05 02:11:35;;;;;;;19.77;13.80;;;13.00;99.90;;;;;;4930113;29;20289;-83
2022/06/05 02:14:04;;;;;;;19.80;15.33;;;13.00;99.90;;;;;;4930551;29;20210;-80
2022/06/05 02:16:32;;;;;;;16.60;13.07;;;13.00;99.90;;;;;;4930059;29;20284;-80
2022/06/05 02:19:04;;;;;;;20.23;13.70;;;13.00;99.90;;;;;;4962804;28;20295;-80
2022/06/05 02:21:32;;;;;;;19.17;14.37;;;13.00;99.90;;;;;;4952024;28;20419;-80
2022/06/05 02:23:59;;;;;;;19.23;13.83;;;13.00;99.90;;;;;;4929868;29;20297;-81
2022/06/05 02:26:28;;;;;;;15.57;14.00;;;13.00;99.90;;;;;;4930609;29;20226;-81
2022/06/05 02:28:57;;;;;;;17.70;13.73;;;13.00;99.90;;;;;;4929916;29;20216;-81
2022/06/05 02:31:34;;;;;;;21.10;14.03;;;13.00;99.90;;;;;;4928850;28;20218;-80
2022/06/05 02:34:12;;;;;;;17.90;13.33;;;13.00;99.90;;;;;;4932104;28;20198;-84
2022/06/05 02:36:48;;;;;;;16.50;14.57;;;13.00;99.90;;;;;;4956746;23;20324;-80
2022/06/05 02:39:23;;;;;;;15.97;13.53;;;12.90;99.90;;;;;;4949852;29;20200;-82
2022/06/05 02:42:00;;;;;;;14.83;13.13;;;13.00;99.90;;;;;;4930829;29;20205;-82
2022/06/05 02:44:37;;;;;;;15.93;12.63;;;13.00;99.90;;;;;;4939379;29;20323;-81
2022/06/05 02:47:19;;;;;;;18.57;13.63;;;13.00;99.90;;;;;;4949646;29;20239;-81
2022/06/05 02:49:51;;;;;;;16.77;13.50;;;13.00;99.90;;;;;;4950029;29;20211;-82
2022/06/05 02:52:19;;;;;;;21.33;14.00;;;13.00;99.90;;;;;;4949542;29;20201;-81
2022/06/05 02:54:51;;;;;;;15.83;13.60;;;13.00;99.90;;;;;;4930426;29;20213;-83
2022/06/05 02:57:20;;;;;;;16.30;13.80;;;13.00;99.90;;;;;;4929918;29;20198;-82
2022/06/05 02:59:48;;;;;;;18.90;12.47;;;13.00;99.90;;;;;;4929718;29;20277;-81
2022/06/05 03:05:00;;;;;;;16.13;13.37;;;13.10;99.90;;;;;;4912900;29;20210;-82
2022/06/05 03:07:28;;;;;;;19.50;13.03;;;13.10;99.90;;;;;;4912111;29;20337;-82
2022/06/05 03:09:55;;;;;;;17.27;13.03;;;13.10;99.90;;;;;;4931771;29;20205;-81
2022/06/05 03:12:22;;;;;;;16.43;13.67;;;13.20;99.90;;;;;;4934498;29;20277;-81
2022/06/05 03:14:50;;;;;;;15.23;12.70;;;13.20;99.90;;;;;;4934599;29;20197;-82
2022/06/05 03:17:17;;;;;;;15.37;12.10;;;13.20;99.90;;;;;;4933292;29;20262;-81
2022/06/05 03:19:44;;;;;;;16.30;12.47;;;13.20;99.90;;;;;;4934869;29;20204;-82
2022/06/05 03:22:11;;;;;;;14.17;12.27;;;13.20;99.90;;;;;;4954985;23;20260;-82
2022/06/05 03:24:38;;;;;;;15.80;12.40;;;13.20;99.90;;;;;;4952036;29;20296;-81
2022/06/05 03:27:06;;;;;;;14.40;11.60;;;13.30;99.90;;;;;;4952457;29;20257;-80
2022/06/05 03:29:33;;;;;;;16.57;12.70;;;13.30;99.90;;;;;;4946593;29;20377;-82
2022/06/05 03:32:01;;;;;;;15.90;11.57;;;13.30;99.90;;;;;;4934208;29;20212;-81
2022/06/05 03:34:28;;;;;;;15.03;12.53;;;13.30;99.90;;;;;;4932955;29;20447;-82
2022/06/05 03:36:56;;;;;;;15.43;11.93;;;13.30;99.90;;;;;;4960002;28;20506;-80
2022/06/05 03:39:22;;;;;;;17.07;11.53;;;13.30;99.90;;;;;;4970836;28;20229;-82
2022/06/05 03:41:50;;;;;;;13.70;11.43;;;13.30;99.90;;;;;;4971884;28;20205;-81
2022/06/05 03:44:17;;;;;;;15.00;12.13;;;13.40;99.90;;;;;;4973075;28;20335;-82
2022/06/05 03:46:44;;;;;;;15.17;11.53;;;13.30;99.90;;;;;;4972771;28;20263;-83
2022/06/05 03:49:12;;;;;;;15.30;12.37;;;13.30;99.90;;;;;;4973247;28;20217;-83
2022/06/05 03:51:44;;;;;;;17.13;12.33;;;13.30;99.90;;;;;;4972955;28;20220;-82
2022/06/05 03:54:11;;;;;;;16.00;12.23;;;13.40;99.90;;;;;;4972307;28;20208;-82
2022/06/05 03:56:39;;;;;;;15.67;11.47;;;13.40;99.90;;;;;;4972382;28;21011;-81
2022/06/05 03:59:06;;;;;;;21.10;13.30;;;13.40;99.90;;;;;;4972141;28;20298;-83
2022/06/05 04:01:33;;;;;;;13.83;12.43;;;13.40;99.90;;;;;;4971335;28;20210;-85
2022/06/05 04:04:00;;;;;;;14.27;11.20;;;13.50;99.90;;;;;;4970804;28;20300;-84
2022/06/05 04:06:30;;;;;;;16.53;10.97;;;13.50;99.90;;;;;;4971733;28;20204;-80
2022/06/05 04:08:58;;;;;;;14.87;12.10;;;13.50;99.90;;;;;;4952926;29;20300;-83
2022/06/05 04:11:27;;;;;;;21.90;12.50;;;13.50;99.90;;;;;;4960613;28;20259;-82
2022/06/05 04:13:54;;;;;;;13.47;11.70;;;13.50;99.90;;;;;;4971837;28;20903;-81
2022/06/05 04:16:24;;;;;;;15.00;11.87;;;13.50;99.90;;;;;;4956711;28;20224;-80
2022/06/05 04:18:52;;;;;;;14.63;12.47;;;13.50;99.90;;;;;;4953242;29;20233;-84
2022/06/05 04:21:23;;;;;;;16.63;11.77;;;13.50;99.90;;;;;;4955379;28;20236;-82
2022/06/05 04:23:52;;;;;;;14.00;11.73;;;13.50;99.90;;;;;;4970612;28;20600;-82
2022/06/05 04:26:21;;;;;;;15.90;11.47;;;13.40;99.90;;;;;;4970508;28;20640;-84
2022/06/05 04:28:49;;;;;;;15.57;12.20;;;13.40;99.90;;;;;;4959962;28;20239;-82
2022/06/05 04:31:19;;;;;;;16.93;12.30;;;13.50;99.90;;;;;;4970289;28;20199;-83
2022/06/05 04:33:46;;;;;;;14.50;12.77;;;13.50;99.90;;;;;;4970599;28;20214;-80
2022/06/05 04:36:13;;;;;;;15.63;12.50;;;13.50;99.90;;;;;;4968981;28;20599;-81
2022/06/05 04:38:40;;;;;;;17.73;12.33;;;13.50;99.90;;;;;;4970956;28;20204;-82
2022/06/05 04:41:08;;;;;;;12.90;11.00;;;13.50;99.90;;;;;;4970799;28;20315;-84
2022/06/05 04:43:35;;;;;;;17.40;13.10;;;13.50;99.90;;;;;;4970393;28;20292;-83
2022/06/05 04:46:02;;;;;;;16.37;12.63;;;13.60;99.90;;;;;;4970539;28;20304;-82
2022/06/05 04:48:29;;;;;;;17.07;13.33;;;13.60;99.90;;;;;;4970688;28;20974;-84
2022/06/05 04:50:56;;;;;;;19.80;12.40;;;13.60;99.90;;;;;;4969578;28;20508;-80
2022/06/05 04:53:23;;;;;;;15.43;12.87;;;13.60;99.90;;;;;;4969834;28;20346;-80
2022/06/05 04:55:50;;;;;;;16.63;12.73;;;13.70;99.90;;;;;;4970869;28;20296;-81
2022/06/05 04:58:18;;;;;;;17.03;12.47;;;13.70;99.90;;;;;;4969771;28;20204;-82
2022/06/05 05:00:45;;;;;;;16.97;12.17;;;13.70;99.90;;;;;;4968814;28;20200;-80
2022/06/05 05:03:12;;;;;;;19.93;12.23;;;13.70;99.90;;;;;;4950636;29;20868;-81
2022/06/05 05:05:39;;;;;;;19.83;13.37;;;13.80;99.90;;;;;;4969391;28;20657;-84
2022/06/05 05:08:06;;;;;;;16.30;12.90;;;13.80;99.90;;;;;;4988746;28;20242;-82
2022/06/05 05:10:33;;;;;;;15.10;12.07;;;13.90;99.90;;;;;;4956109;28;20292;-82
2022/06/05 05:13:00;;;;;;;13.50;11.40;;;13.90;99.90;;;;;;4953977;28;20227;-80
2022/06/05 05:15:29;;;;;;;17.43;13.33;;;13.90;99.90;;;;;;4970853;28;20212;-82
2022/06/05 05:17:57;;;;;;;13.47;11.77;;;13.90;99.90;;;;;;4971080;28;20260;-84
2022/06/05 05:20:24;;;;;;;14.40;11.97;;;13.90;99.90;;;;;;4969754;28;20205;-83
2022/06/05 05:22:52;;;;;;;15.67;12.40;;;13.90;99.90;;;;;;4970239;28;20223;-82
2022/06/05 05:25:19;;;;;;;15.77;11.53;;;14.00;99.90;;;;;;4971917;28;20244;-80
2022/06/05 05:27:46;;;;;;;17.77;13.33;;;14.00;99.90;;;;;;4970435;28;20224;-82
2022/06/05 05:30:15;;;;;;;15.97;12.07;;;14.00;99.90;;;;;;4970165;28;20500;-83
2022/06/05 05:32:43;;;;;;;16.13;13.27;;;14.10;99.90;;;;;;4978725;28;20208;-83
2022/06/05 05:35:10;;;;;;;15.93;12.43;;;14.20;99.90;;;;;;4991609;28;20212;-81
2022/06/05 05:37:37;;;;;;;15.63;11.83;;;14.20;99.90;;;;;;4999309;28;20203;-81
2022/06/05 05:42:49;;;;;;;13.30;11.87;;;14.20;99.90;;;;;;4990952;28;20179;-81
2022/06/05 05:45:16;;;;;;;15.93;12.37;;;14.20;99.90;;;;;;4988775;28;20204;-81
2022/06/05 05:47:45;;;;;;;17.13;11.87;;;14.30;99.90;;;;;;4975792;28;20229;-82
2022/06/05 05:50:15;;;;;;;15.67;11.37;;;14.30;99.90;;;;;;4973799;28;20216;-79
2022/06/05 05:52:42;;;;;;;18.13;12.37;;;14.30;99.90;;;;;;4974570;28;20288;-84
2022/06/05 05:55:12;;;;;;;14.73;11.57;;;14.40;99.90;;;;;;4975033;28;20288;-82
2022/06/05 05:57:40;;;;;;;14.23;11.30;;;14.40;99.90;;;;;;4970024;28;20247;-82
2022/06/05 06:00:10;;;;;;;15.40;11.83;;;14.40;99.90;;;;;;4951059;29;20204;-80
2022/06/05 06:02:38;;;;;;;12.63;11.07;;;14.40;99.90;;;;;;4950468;29;20205;-82
2022/06/05 06:05:08;;;;;;;13.30;11.20;;;14.40;99.90;;;;;;4950436;29;20220;-80
2022/06/05 06:07:35;;;;;;;17.17;12.33;;;14.50;99.90;;;;;;4954683;28;20236;-81
2022/06/05 06:10:02;;;;;;;14.10;10.90;;;14.50;99.90;;;;;;4969731;28;20649;-81
2022/06/05 06:12:29;;;;;;;12.73;10.67;;;14.50;99.90;;;;;;4968688;28;20311;-80
2022/06/05 06:14:56;;;;;;;14.30;11.60;;;14.50;99.90;;;;;;4969631;28;20212;-82
2022/06/05 06:17:23;;;;;;;16.70;12.07;;;14.50;99.90;;;;;;4962322;28;20220;-84
2022/06/05 06:19:50;;;;;;;12.33;10.73;;;14.50;99.90;;;;;;4949846;29;20197;-82
2022/06/05 06:22:19;;;;;;;14.63;11.60;;;14.50;99.90;;;;;;4981504;28;20279;-82
2022/06/05 06:24:46;;;;;;;12.97;11.60;;;14.50;99.90;;;;;;4988734;28;20196;-81
2022/06/05 06:27:13;;;;;;;13.60;12.17;;;14.50;99.90;;;;;;4987517;28;20218;-81
2022/06/05 06:29:40;;;;;;;14.40;11.20;;;14.50;99.90;;;;;;4979163;28;20220;-80
2022/06/05 06:32:08;;;;;;;13.33;11.93;;;14.60;99.90;;;;;;4967886;28;20231;-81
2022/06/05 06:34:35;;;;;;;15.23;12.17;;;14.50;99.90;;;;;;4946440;28;20292;-81
2022/06/05 06:37:02;;;;;;;14.93;12.43;;;14.50;99.90;;;;;;4972153;28;20295;-79
2022/06/05 06:39:30;;;;;;;13.97;11.90;;;14.60;99.90;;;;;;4987456;28;20861;-80
2022/06/05 06:41:57;;;;;;;19.20;12.13;;;14.60;99.90;;;;;;4987413;28;20215;-82
2022/06/05 06:44:25;;;;;;;16.63;12.73;;;14.60;99.90;;;;;;4986232;28;20674;-82
2022/06/05 06:46:52;;;;;;;15.53;11.87;;;14.60;99.90;;;;;;4960992;28;20205;-81
2022/06/05 06:49:19;;;;;;;13.67;10.87;;;14.60;99.90;;;;;;4949036;28;20308;-82
2022/06/05 06:51:46;;;;;;;13.63;12.00;;;14.60;99.90;;;;;;4949502;29;20692;-78
2022/06/05 06:54:13;;;;;;;15.93;11.10;;;14.60;99.90;;;;;;4949450;29;20241;-80
2022/06/05 06:56:42;;;;;;;18.27;12.33;;;14.60;99.90;;;;;;4962495;28;20214;-82
2022/06/05 06:59:09;;;;;;;17.20;12.57;;;14.70;99.90;;;;;;4968462;28;20211;-80
2022/06/05 07:01:37;;;;;;;14.07;12.53;;;14.60;99.90;;;;;;4968422;28;20227;-83
2022/06/05 07:04:04;;;;;;;16.33;12.20;;;14.70;99.90;;;;;;4969729;28;20231;-83
2022/06/05 07:06:31;;;;;;;15.47;13.27;;;14.70;99.90;;;;;;4967325;28;20316;-83
2022/06/05 07:08:58;;;;;;;16.40;13.07;;;14.60;99.90;;;;;;4970334;28;20230;-81
2022/06/05 07:11:25;;;;;;;19.30;12.87;;;14.60;99.90;;;;;;4987108;28;20216;-82
2022/06/05 07:13:54;;;;;;;15.83;14.10;;;14.60;99.90;;;;;;4957347;28;20223;-81
2022/06/05 07:16:20;;;;;;;17.63;13.60;;;14.70;99.90;;;;;;4948826;29;20215;-82
2022/06/05 07:18:47;;;;;;;19.40;13.83;;;14.70;99.90;;;;;;4949040;29;20317;-81
2022/06/05 07:21:16;;;;;;;19.07;12.57;;;14.70;99.90;;;;;;4960836;28;20811;-84
2022/06/05 07:23:43;;;;;;;15.77;13.10;;;14.70;99.90;;;;;;4964832;28;20201;-84
2022/06/05 07:26:12;;;;;;;14.20;12.67;;;14.80;99.90;;;;;;4964565;28;20211;-83
2022/06/05 07:28:40;;;;;;;16.13;13.50;;;14.90;99.90;;;;;;4966670;28;20519;-82
2022/06/05 07:31:10;;;;;;;16.97;12.77;;;14.90;99.90;;;;;;4969232;28;20208;-82
2022/06/05 07:33:37;;;;;;;17.77;14.50;;;15.00;99.90;;;;;;4969414;28;20279;-83
2022/06/05 07:36:06;;;;;;;19.20;13.90;;;15.10;99.90;;;;;;4954881;28;20205;-82
2022/06/05 07:38:35;;;;;;;16.50;13.90;;;15.10;99.90;;;;;;4948729;29;20197;-82
2022/06/05 07:41:03;;;;;;;19.50;15.03;;;15.20;99.90;;;;;;4948563;29;20764;-85
2022/06/05 07:43:30;;;;;;;16.00;12.13;;;15.30;99.90;;;;;;4950091;29;20198;-82
2022/06/05 07:45:58;;;;;;;15.53;13.67;;;15.30;99.90;;;;;;4968838;28;20219;-83
2022/06/05 07:48:26;;;;;;;18.73;13.83;;;15.40;99.90;;;;;;4962100;28;20225;-81
2022/06/05 07:56:30;;;;;;;19.40;14.23;;;15.40;99.90;;;;;;4969403;28;20188;-83
2022/06/05 07:58:57;;;;;;;17.37;15.47;;;15.40;99.90;;;;;;4970704;28;20613;-83
2022/06/05 08:01:23;;;;;;;16.83;14.07;;;15.40;99.90;;;;;;4963375;28;20216;-83
2022/06/05 08:03:52;;;;;;;15.77;13.63;;;15.50;99.90;;;;;;4952194;29;20296;-80
2022/06/05 08:06:20;;;;;;;15.57;13.63;;;15.60;99.90;;;;;;4951324;29;20641;-81
2022/06/05 08:08:46;;;;;;;17.20;14.20;;;15.60;99.90;;;;;;4950432;29;20972;-85
2022/06/05 08:11:13;;;;;;;17.13;15.20;;;15.70;99.90;;;;;;4965336;28;20634;-83
2022/06/05 08:13:40;;;;;;;17.47;14.17;;;15.80;99.90;;;;;;4971523;28;20291;-84
2022/06/05 08:16:07;;;;;;;15.63;13.93;;;15.80;99.90;;;;;;4970615;28;20211;-83
2022/06/05 08:18:35;;;;;;;15.97;14.27;;;15.80;99.90;;;;;;4971871;28;20546;-81
2022/06/05 08:21:03;;;;;;;17.60;14.03;;;15.90;99.90;;;;;;4970683;28;20247;-80
2022/06/05 08:23:30;;;;;;;16.07;14.33;;;15.90;99.90;;;;;;4972086;28;20199;-81
2022/06/05 08:25:58;;;;;;;19.60;14.33;;;16.00;99.90;;;;;;4971246;28;20397;-82
2022/06/05 08:28:25;;;;;;;15.23;13.63;;;16.10;99.90;;;;;;4952481;28;20243;-84
2022/06/05 08:30:52;;;;;;;15.17;13.33;;;16.20;99.90;;;;;;4952056;29;20252;-83
2022/06/05 08:33:20;;;;;;;13.63;12.30;;;16.30;99.90;;;;;;4952940;28;20212;-87
2022/06/05 08:35:48;;;;;;;15.60;12.47;;;16.40;99.90;;;;;;4966649;28;20263;-87
2022/06/05 08:41:31;;;;;;;13.73;12.40;;;16.40;99.90;;;;;;4975887;28;20750;-86
2022/06/05 08:44:25;;;;;;;15.00;13.30;;;16.50;99.90;;;;;;4973323;28;20200;-86
2022/06/05 08:46:56;;;;;;;13.70;12.10;;;16.50;99.90;;;;;;4973350;28;20208;-84
2022/06/05 08:49:37;;;;;;;14.38;12.27;;;16.60;99.90;;;;;;4973493;28;20576;-86
2022/06/05 08:52:17;;;;;;;12.43;11.32;;;16.80;99.90;;;;;;4973707;28;20315;-85
2022/06/05 08:54:51;;;;;;;13.60;11.50;;;16.90;99.90;;;;;;4965402;28;20288;-83
2022/06/05 08:57:22;;;;;;;15.75;12.55;;;17.00;99.90;;;;;;4963192;28;20207;-81
2022/06/05 08:59:54;;;;;;;16.33;11.60;;;17.20;99.90;;;;;;4968910;28;20205;-87
2022/06/05 09:02:26;;;;;;;13.38;11.18;;;17.40;99.90;;;;;;4970097;28;20267;-85
2022/06/05 09:04:58;;;;;;;13.75;12.27;;;17.40;99.90;;;;;;4971261;28;20503;-84
2022/06/05 09:07:32;;;;;;;14.68;11.45;;;17.60;99.90;;;;;;4958728;28;20213;-89
2022/06/05 09:10:04;;;;;;;13.60;12.05;;;17.70;99.90;;;;;;4953760;29;20240;-87
2022/06/05 09:12:37;;;;;;;12.05;10.85;;;17.80;99.90;;;;;;4952611;29;20205;-84
2022/06/05 09:15:14;;;;;;;11.88;10.68;;;18.00;99.90;;;;;;4953802;29;20225;-83
2022/06/05 09:17:45;;;;;;;12.35;11.07;;;18.20;99.90;;;;;;4971639;28;20212;-88
2022/06/05 09:20:16;;;;;;;15.25;12.00;;;18.20;99.90;;;;;;4972582;28;20602;-88
2022/06/05 09:22:50;;;;;;;14.20;12.52;;;18.50;99.90;;;;;;4971508;28;20240;-81
2022/06/05 09:25:39;;;;;;;15.30;11.85;;;18.60;99.90;;;;;;4971379;28;20243;-85
2022/06/05 09:28:39;;;;;;;12.40;11.20;;;18.70;99.90;;;;;;4952696;29;20573;-87
2022/06/05 09:31:31;;;;;;;12.82;11.38;;;18.80;99.90;;;;;;4963748;28;20300;-81
2022/06/05 09:34:01;;;;;;;13.90;11.13;;;18.80;99.90;;;;;;4972086;28;20213;-86
2022/06/05 09:36:30;;;;;;;12.93;11.52;;;19.00;99.90;;;;;;4988631;28;20204;-81
2022/06/05 09:39:02;;;;;;;12.65;11.38;;;19.10;99.90;;;;;;4981881;28;20639;-82
2022/06/05 09:41:43;;;;;;;11.75;10.52;;;19.20;99.90;;;;;;4972922;28;20228;-87
2022/06/05 09:44:23;;;;;;;13.25;11.88;;;19.20;99.90;;;;;;4973323;28;20215;-81
2022/06/05 09:46:59;;;;;;;13.77;11.90;;;19.20;99.90;;;;;;4972467;28;20210;-86
2022/06/05 09:49:33;;;;;;;13.70;12.02;;;19.20;99.90;;;;;;4969052;28;20243;-86
2022/06/05 09:52:11;;;;;;;13.30;11.68;;;19.10;99.90;;;;;;4971463;28;20307;-86
2022/06/05 09:54:43;;;;;;;13.38;12.02;;;19.10;99.90;;;;;;4972657;28;20196;-85
2022/06/05 10:00:14;;;;;;;12.77;11.35;;;19.30;99.90;;;;;;4953916;29;20220;-86
2022/06/05 10:02:43;;;;;;;12.52;11.32;;;19.20;99.90;;;;;;4969968;28;20312;-88
2022/06/05 10:05:16;;;;;;;12.65;11.35;;;19.20;99.90;;;;;;4969876;28;20228;-84
2022/06/05 10:07:48;;;;;;;14.23;11.90;;;19.30;99.90;;;;;;4966819;28;20244;-90
2022/06/05 10:10:19;;;;;;;12.80;11.50;;;19.30;99.90;;;;;;4963998;28;20263;-85
2022/06/05 10:12:54;;;;;;;12.40;11.10;;;19.40;99.90;;;;;;4967694;28;20308;-83
2022/06/05 10:15:27;;;;;;;12.60;11.35;;;19.50;99.90;;;;;;4968628;28;20204;-85
2022/06/05 10:17:57;;;;;;;13.48;11.27;;;19.60;99.90;;;;;;4969442;28;20357;-85
2022/06/05 10:20:57;;;;;;;15.07;12.18;;;19.50;99.90;;;;;;4969009;28;20216;-85
2022/06/05 10:23:41;;;;;;;12.57;11.13;;;19.50;99.90;;;;;;4968443;28;20308;-88
2022/06/05 10:26:20;;;;;;;12.02;10.82;;;19.70;99.90;;;;;;4971309;28;20330;-85
2022/06/05 10:28:52;;;;;;;11.82;10.00;;;19.90;99.90;;;;;;4970825;28;20232;-86
2022/06/05 10:31:28;;;;;;;11.93;10.73;;;20.10;99.90;;;;;;4970755;28;20308;-86
2022/06/05 10:34:11;;;;;;;11.57;10.38;;;20.20;99.90;;;;;;4971291;28;20223;-85
2022/06/05 10:36:55;;;;;;;11.65;10.45;;;20.40;99.90;;;;;;4968053;28;20220;-85
2022/06/05 10:39:27;;;;;;;11.05;9.75;;;20.50;99.90;;;;;;4968739;28;20254;-85
2022/06/05 10:42:21;;;;;;;12.38;10.02;;;20.80;99.90;;;;;;4969726;28;20299;-83
2022/06/05 10:45:04;;;;;;;10.82;9.63;;;21.10;99.90;;;;;;4967633;28;20298;-83
2022/06/05 10:47:41;;;;;;;10.73;9.65;;;21.30;99.90;;;;;;4969968;28;20263;-85
2022/06/05 10:50:17;;;;;;;10.30;8.95;;;21.40;99.90;;;;;;4970137;28;20235;-83
2022/06/05 10:52:58;;;;;;;10.27;9.38;;;21.40;99.90;;;;;;4969500;28;20627;-83
2022/06/05 10:55:35;;;;;;;12.38;11.07;;;21.70;99.90;;;;;;4969665;28;20537;-84
2022/06/05 10:58:14;;;;;;;10.45;9.40;;;21.80;99.90;;;;;;4966293;28;20215;-82
2022/06/05 11:00:59;;;;;;;11.55;10.25;;;21.70;99.90;;;;;;4966663;28;20215;-84
2022/06/05 11:03:36;;;;;;;13.23;11.90;;;22.00;99.90;;;;;;4967082;28;20216;-82
2022/06/05 11:06:18;;;;;;;11.52;10.43;;;22.00;99.90;;;;;;4971180;28;20204;-82
2022/06/05 11:08:58;;;;;;;11.70;10.63;;;22.20;99.90;;;;;;4971156;28;20236;-87
2022/06/05 11:14:21;;;;;;;12.27;11.10;;;22.10;99.90;;;;;;4952265;28;21104;-85
2022/06/05 11:16:56;;;;;;;12.32;10.93;;;22.10;99.90;;;;;;4951369;29;20197;-86
2022/06/05 11:19:34;;;;;;;12.40;10.25;;;22.20;99.90;;;;;;4953317;28;20892;-85
2022/06/05 11:22:04;;;;;;;11.80;10.70;;;22.20;99.90;;;;;;4969820;28;20294;-82
2022/06/05 11:24:34;;;;;;;12.05;10.73;;;22.20;99.90;;;;;;4962045;28;20202;-82
2022/06/05 11:27:10;;;;;;;14.43;11.40;;;22.30;99.90;;;;;;4950184;29;20283;-82
2022/06/05 11:29:47;;;;;;;11.88;10.77;;;22.40;99.90;;;;;;4966221;28;20302;-84
2022/06/05 11:32:40;;;;;;;12.60;11.30;;;22.50;99.90;;;;;;4971083;28;20290;-85
2022/06/05 11:35:18;;;;;;;12.57;11.38;;;22.70;99.90;;;;;;4955833;29;20204;-87
2022/06/05 11:37:59;;;;;;;13.15;11.85;;;22.80;99.90;;;;;;4960806;28;20196;-85
2022/06/05 11:40:49;;;;;;;11.88;10.65;;;22.80;99.90;;;;;;4975946;28;20306;-86
2022/06/05 11:43:32;;;;;;;11.32;10.13;;;23.00;99.90;;;;;;4973485;28;20189;-87
2022/06/05 11:46:04;;;;;;;12.05;10.75;;;23.10;99.90;;;;;;4959616;28;20238;-85
2022/06/05 11:48:38;;;;;;;9.70;8.80;;;23.30;99.90;;;;;;4956833;29;20215;-84
2022/06/05 11:51:14;;;;;;;11.85;10.55;;;23.50;99.90;;;;;;4960080;29;20461;-90
2022/06/05 11:53:52;;;;;;;10.52;9.52;;;23.40;99.90;;;;;;4967294;28;20202;-88
2022/06/05 11:56:49;;;;;;;12.02;10.93;;;23.50;99.90;;;;;;4979778;28;20508;-87
2022/06/05 11:59:28;;;;;;;11.73;10.55;;;23.50;99.90;;;;;;4978340;28;20209;-91
2022/06/05 12:01:58;;;;;;;10.90;9.98;;;23.30;99.90;;;;;;4992753;28;20296;-89
2022/06/05 12:04:36;;;;;;;10.95;9.93;;;23.20;99.90;;;;;;4990817;28;20189;-88
2022/06/05 12:07:06;;;;;;;10.95;9.90;;;23.10;99.90;;;;;;4982479;28;20196;-91
2022/06/05 12:09:47;;;;;;;11.65;10.55;;;23.10;99.90;;;;;;4980241;28;20228;-88
2022/06/05 12:12:21;;;;;;;11.23;10.13;;;23.10;99.90;;;;;;4979932;28;20185;-91
2022/06/05 12:14:53;;;;;;;11.65;10.60;;;23.00;99.90;;;;;;4979314;28;20227;-90
2022/06/05 12:17:25;;;;;;;12.43;11.18;;;22.90;99.90;;;;;;4975602;28;20205;-90
2022/06/05 12:20:01;;;;;;;12.50;10.70;;;22.70;99.90;;;;;;4975652;28;20513;-92
2022/06/05 12:22:35;;;;;;;10.57;9.65;;;22.70;99.90;;;;;;4974697;28;20323;-89
2022/06/05 12:25:17;;;;;;;11.00;9.45;;;22.70;99.90;;;;;;4975330;28;20911;-91
2022/06/05 12:27:57;;;;;;;11.23;10.07;;;22.60;99.90;;;;;;4975082;28;20211;-93
2022/06/05 12:30:27;;;;;;;11.20;10.20;;;22.70;99.90;;;;;;4974457;28;20219;-91
2022/06/05 12:32:59;;;;;;;12.48;11.38;;;22.60;99.90;;;;;;4975676;28;20189;-93
2022/06/05 12:35:32;;;;;;;10.95;9.95;;;22.50;99.90;;;;;;4975706;28;20610;-89
2022/06/05 12:38:13;;;;;;;12.00;10.85;;;22.40;99.90;;;;;;4976114;28;20203;-88
2022/06/05 12:40:44;;;;;;;10.32;9.43;;;22.20;99.90;;;;;;4975903;28;20224;-91
2022/06/05 12:43:20;;;;;;;11.07;10.05;;;22.20;99.90;;;;;;4973402;28;20236;-91
2022/06/05 12:45:53;;;;;;;12.23;11.02;;;22.00;99.90;;;;;;4975898;28;20284;-90
2022/06/05 12:48:23;;;;;;;12.20;11.20;;;21.90;99.90;;;;;;4975087;28;20288;-90
2022/06/05 12:50:58;;;;;;;11.48;10.25;;;21.90;99.90;;;;;;4975372;28;20236;-91
2022/06/05 12:53:36;;;;;;;10.30;9.30;;;21.90;99.90;;;;;;4973777;28;20291;-90
2022/06/05 12:56:22;;;;;;;12.20;10.63;;;21.80;99.90;;;;;;4974748;28;20219;-92
2022/06/05 12:58:56;;;;;;;12.32;11.05;;;21.80;99.90;;;;;;4975292;28;20661;-89
2022/06/05 13:01:28;;;;;;;12.50;11.30;;;21.80;99.90;;;;;;4974915;28;20271;-90
2022/06/05 13:04:00;;;;;;;13.20;11.77;;;21.80;99.90;;;;;;4975823;28;20591;-89
2022/06/05 13:06:44;;;;;;;11.35;10.00;;;21.60;99.90;;;;;;4974056;28;20193;-89
2022/06/05 13:09:27;;;;;;;12.73;11.52;;;21.40;99.90;;;;;;4954412;29;20692;-89
2022/06/05 13:12:00;;;;;;;10.90;9.90;;;21.40;99.90;;;;;;4954483;29;20284;-88